createdAt,value
2023-05-02T00:01:14.103Z,102027.83
2023-05-02T00:03:44.977Z,102038.88
2023-05-02T00:06:15.163Z,102038.64
2023-05-02T00:08:45.447Z,102032.47
2023-05-02T00:11:15.331Z,102038.92
2023-05-02T00:13:45.117Z,102034.58
2023-05-02T00:16:15.279Z,102036.87
2023-05-02T00:18:45.427Z,102046.38
2023-05-02T00:21:15.525Z,102047.48
2023-05-02T00:23:45.319Z,102050.95
2023-05-02T00:26:14.896Z,102050.17
2023-05-02T00:28:44.710Z,102044.28
2023-05-02T00:31:15.084Z,102043.98
2023-05-02T00:33:45.403Z,102049.41
2023-05-02T00:36:17.431Z,102049.11
2023-05-02T00:38:47.586Z,102049.45
2023-05-02T00:41:18.591Z,102053.41
2023-05-02T00:43:48.584Z,102054.83
2023-05-02T00:46:18.748Z,102058.26
2023-05-02T00:48:48.642Z,102059.38
2023-05-02T00:51:18.727Z,102061.97
2023-05-02T00:53:49.062Z,102065.11
2023-05-02T00:56:18.885Z,102066.78
2023-05-02T00:58:48.867Z,102059.08
2023-05-02T01:01:24.959Z,102057.48
2023-05-02T01:04:03.730Z,102050.02
2023-05-02T01:06:37.502Z,102046.39
2023-05-02T01:09:10.325Z,102052.81
2023-05-02T01:12:04.461Z,102050.73
2023-05-02T01:14:37.398Z,102053.45
2023-05-02T01:17:10.414Z,102056.14
2023-05-02T01:19:43.391Z,102056.47
2023-05-02T01:22:15.407Z,102060.94
2023-05-02T01:24:57.108Z,102064.94
2023-05-02T01:27:46.284Z,102060.05
2023-05-02T01:30:19.685Z,102066.48
2023-05-02T01:32:51.018Z,102062.28
2023-05-02T01:35:22.380Z,102066.92
2023-05-02T01:37:53.880Z,102066.22
2023-05-02T01:40:26.355Z,102064.69
2023-05-02T01:42:58.129Z,102070.50
2023-05-02T01:45:30.086Z,102073.67
2023-05-02T01:48:01.708Z,102080.09
2023-05-02T01:50:32.770Z,102078.84
2023-05-02T01:53:04.804Z,102080.82
2023-05-02T01:55:37.469Z,102085.59
2023-05-02T01:58:09.878Z,102087.58
2023-05-02T02:00:41.951Z,102089.55
2023-05-02T02:03:13.008Z,102095.84
2023-05-02T02:05:43.383Z,102096.43
2023-05-02T02:08:14.514Z,102097.50
2023-05-02T02:10:46.923Z,102096.17
2023-05-02T02:13:25.507Z,102096.22
2023-05-02T02:15:58.660Z,102101.95
2023-05-02T02:18:30.360Z,102098.84
2023-05-02T02:21:01.075Z,102095.45
2023-05-02T02:23:33.198Z,102095.70
2023-05-02T02:26:05.874Z,102098.11
2023-05-02T02:28:36.102Z,102097.80
2023-05-02T02:31:06.219Z,102103.19
2023-05-02T02:33:35.928Z,102107.71
2023-05-02T02:36:16.061Z,102108.59
2023-05-02T02:38:59.285Z,102112.95
2023-05-02T02:41:46.712Z,102112.95
2023-05-02T02:44:31.195Z,102122.66
2023-05-02T02:47:09.632Z,102128.25
2023-05-02T02:50:04.951Z,102131.13
2023-05-02T02:52:43.294Z,102136.79
2023-05-02T02:55:16.172Z,102136.98
2023-05-02T02:57:57.941Z,102140.75
2023-05-02T03:00:29.672Z,102146.31
2023-05-02T03:02:59.620Z,102140.89
2023-05-02T03:05:31.691Z,102146.17
2023-05-02T03:08:02.052Z,102153.52
2023-05-02T03:10:33.596Z,102147.14
2023-05-02T03:13:03.461Z,102158.41
2023-05-02T03:15:48.049Z,102160.80
2023-05-02T03:18:19.167Z,102169.90
2023-05-02T03:20:49.276Z,102176.03
2023-05-02T03:23:19.165Z,102181.61
2023-05-02T03:25:49.676Z,102184.04
2023-05-02T03:28:20.859Z,102180.38
2023-05-02T03:30:51.334Z,102181.70
2023-05-02T03:33:22.108Z,102189.70
2023-05-02T03:35:52.077Z,102201.34
2023-05-02T03:38:22.648Z,102194.14
2023-05-02T03:40:52.668Z,102193.14
2023-05-02T03:43:22.559Z,102200.13
2023-05-02T03:45:52.724Z,102207.05
2023-05-02T03:48:23.431Z,102207.19
2023-05-02T03:50:53.248Z,102213.70
2023-05-02T03:53:23.060Z,102210.64
2023-05-02T03:55:53.658Z,102214.55
2023-05-02T03:58:25.568Z,102210.44
2023-05-02T04:00:55.987Z,102215.77
2023-05-02T04:03:28.658Z,102217.27
2023-05-02T04:05:58.182Z,102190.27
2023-05-02T04:08:28.395Z,102190.27
2023-05-02T04:10:59.079Z,102218.83
2023-05-02T04:13:29.282Z,102223.63
2023-05-02T04:16:00.293Z,102223.63
2023-05-02T04:18:31.810Z,102232.73
2023-05-02T04:21:03.188Z,102235.01
2023-05-02T04:23:33.708Z,102235.34
2023-05-02T04:26:06.737Z,102240.73
2023-05-02T04:28:38.281Z,102249.27
2023-05-02T04:31:09.869Z,102248.76
2023-05-02T04:33:40.266Z,102252.10
2023-05-02T04:36:11.200Z,102262.69
2023-05-02T04:38:42.802Z,102264.23
2023-05-02T04:41:13.741Z,102266.14
2023-05-02T04:43:45.826Z,102269.91
2023-05-02T04:46:18.383Z,102274.75
2023-05-02T04:48:48.680Z,102280.19
2023-05-02T04:51:18.862Z,102280.38
2023-05-02T04:53:50.516Z,102282.44
2023-05-02T04:56:21.889Z,102287.98
2023-05-02T04:58:51.980Z,102290.42
2023-05-02T05:01:21.959Z,102291.35
2023-05-02T05:03:52.825Z,102300.63
2023-05-02T05:06:23.217Z,102312.56
2023-05-02T05:08:54.640Z,102312.66
2023-05-02T05:11:24.487Z,102315.26
2023-05-02T05:13:55.341Z,102315.26
2023-05-02T05:16:25.762Z,102322.95
2023-05-02T05:18:55.937Z,102325.88
2023-05-02T05:21:27.095Z,102329.39
2023-05-02T05:23:58.096Z,102328.55
2023-05-02T05:26:29.426Z,102329.49
2023-05-02T05:28:59.784Z,102342.74
2023-05-02T05:31:31.451Z,102346.87
2023-05-02T05:34:03.022Z,102344.02
2023-05-02T05:36:32.933Z,102348.14
2023-05-02T05:39:04.208Z,102355.06
2023-05-02T05:41:35.600Z,102353.68
2023-05-02T05:44:07.131Z,102361.45
2023-05-02T05:46:36.977Z,102362.66
2023-05-02T05:49:08.011Z,102368.51
2023-05-02T05:51:38.412Z,102367.00
2023-05-02T05:54:09.883Z,102380.30
2023-05-02T05:56:40.769Z,102381.83
2023-05-02T05:59:12.413Z,102393.64
2023-05-02T06:01:42.549Z,102394.33
2023-05-02T06:04:12.657Z,102393.88
2023-05-02T06:06:44.420Z,102400.86
2023-05-02T06:09:14.687Z,102406.28
2023-05-02T06:11:44.842Z,102410.38
2023-05-02T06:14:14.736Z,102412.30
2023-05-02T06:16:45.956Z,102412.29
2023-05-02T06:19:15.572Z,102411.78
2023-05-02T06:21:45.430Z,102418.61
2023-05-02T06:24:15.039Z,102421.00
2023-05-02T06:26:44.828Z,102426.30
2023-05-02T06:29:15.240Z,102428.67
2023-05-02T06:31:45.105Z,102436.86
2023-05-02T06:34:14.915Z,102434.33
2023-05-02T06:36:44.715Z,102439.96
2023-05-02T06:39:14.582Z,102447.11
2023-05-02T06:41:44.417Z,102455.47
2023-05-02T06:44:16.193Z,102461.47
2023-05-02T06:46:46.035Z,102462.13
2023-05-02T06:49:15.906Z,102464.71
2023-05-02T06:51:46.150Z,102473.95
2023-05-02T06:54:15.936Z,102472.85
2023-05-02T06:56:45.850Z,102486.67
2023-05-02T06:59:16.943Z,102482.91
2023-05-02T07:01:46.996Z,102486.48
2023-05-02T07:04:16.833Z,102494.49
2023-05-02T07:06:47.740Z,102494.42
2023-05-02T07:09:18.100Z,102497.14
2023-05-02T07:11:47.899Z,102497.14
2023-05-02T07:14:17.718Z,102503.28
2023-05-02T07:16:47.605Z,102510.52
2023-05-02T07:19:17.437Z,102510.52
2023-05-02T07:21:47.207Z,102518.70
2023-05-02T07:24:17.047Z,102518.70
2023-05-02T07:26:47.060Z,102516.73
2023-05-02T07:29:16.893Z,102534.06
2023-05-02T07:31:47.143Z,102536.14
2023-05-02T07:34:16.994Z,102536.66
2023-05-02T07:36:46.813Z,102545.48
2023-05-02T07:39:16.743Z,102546.33
2023-05-02T07:41:46.554Z,102548.77
2023-05-02T07:44:16.155Z,102547.31
2023-05-02T07:46:46.118Z,102544.38
2023-05-02T07:49:16.008Z,102545.64
2023-05-02T07:51:45.925Z,102532.22
2023-05-02T07:54:20.024Z,102532.22
2023-05-02T07:56:50.113Z,102541.30
2023-05-02T07:59:19.896Z,102550.23
2023-05-02T08:01:49.740Z,102554.20
2023-05-02T08:04:19.656Z,102554.20
2023-05-02T08:06:49.374Z,102556.69
2023-05-02T08:09:19.258Z,102560.77
2023-05-02T08:11:48.942Z,102560.77
2023-05-02T08:14:18.846Z,102564.03
2023-05-02T08:16:48.851Z,102568.78
2023-05-02T08:19:18.913Z,102569.42
2023-05-02T08:21:48.820Z,102579.13
2023-05-02T08:24:18.303Z,102577.05
2023-05-02T08:26:48.223Z,102581.38
2023-05-02T08:29:18.017Z,102587.67
2023-05-02T08:31:47.934Z,102598.48
2023-05-02T08:34:17.842Z,102590.70
2023-05-02T08:36:48.499Z,102595.43
2023-05-02T08:39:18.313Z,102603.04
2023-05-02T08:41:48.119Z,102603.04
2023-05-02T08:44:18.110Z,102603.89
2023-05-02T08:46:51.012Z,102607.48
2023-05-02T08:49:21.749Z,102607.41
2023-05-02T08:51:52.284Z,102614.21
2023-05-02T08:54:25.617Z,102610.20
2023-05-02T08:56:58.727Z,102614.11
2023-05-02T08:59:28.835Z,102616.77
2023-05-02T09:02:04.625Z,102619.09
2023-05-02T09:04:36.972Z,102622.42
2023-05-02T09:07:06.825Z,102631.51
2023-05-02T09:09:37.653Z,102633.24
2023-05-02T09:12:10.276Z,102638.91
2023-05-02T09:14:40.100Z,102632.60
2023-05-02T09:17:10.061Z,102632.60
2023-05-02T09:19:39.973Z,102651.15
2023-05-02T09:22:11.634Z,102646.60
2023-05-02T09:24:42.210Z,102648.38
2023-05-02T09:27:12.064Z,102641.30
2023-05-02T09:29:43.532Z,102655.79
2023-05-02T09:32:13.349Z,102653.06
2023-05-02T09:34:46.191Z,102649.29
2023-05-02T09:37:19.061Z,102647.81
2023-05-02T09:39:51.937Z,102653.83
2023-05-02T09:42:24.958Z,102653.83
2023-05-02T09:44:54.837Z,102656.78
2023-05-02T09:47:29.242Z,102662.88
2023-05-02T09:49:59.091Z,102660.12
2023-05-02T09:52:29.094Z,102665.87
2023-05-02T09:54:59.173Z,102665.87
2023-05-02T09:57:42.803Z,102671.57
2023-05-02T10:00:17.350Z,102671.57
2023-05-02T10:02:50.467Z,102679.48
2023-05-02T10:05:22.004Z,102679.78
2023-05-02T10:07:51.685Z,102680.83
2023-05-02T10:10:21.274Z,102682.05
2023-05-02T10:12:53.632Z,102683.64
2023-05-02T10:15:25.809Z,102683.08
2023-05-02T10:17:58.265Z,102680.08
2023-05-02T10:20:37.241Z,102670.00
2023-05-02T10:23:07.220Z,102690.16
2023-05-02T10:25:37.798Z,102688.66
2023-05-02T10:28:11.272Z,102688.89
2023-05-02T10:30:41.517Z,102691.99
2023-05-02T10:33:12.759Z,102685.41
2023-05-02T10:35:46.926Z,102691.16
2023-05-02T10:38:21.112Z,102688.55
2023-05-02T10:40:57.212Z,102686.38
2023-05-02T10:43:29.884Z,102691.59
2023-05-02T10:45:59.806Z,102700.73
2023-05-02T10:48:29.809Z,102695.53
2023-05-02T10:51:01.714Z,102705.13
2023-05-02T10:53:43.721Z,102703.86
2023-05-02T10:56:18.777Z,102708.66
2023-05-02T10:58:51.076Z,102706.52
2023-05-02T11:01:34.147Z,102695.25
2023-05-02T11:04:11.573Z,102695.25
2023-05-02T11:06:46.801Z,102699.89
2023-05-02T11:09:25.117Z,102692.59
2023-05-02T11:11:57.439Z,102698.83
2023-05-02T11:14:31.780Z,102697.17
2023-05-02T11:17:04.671Z,102701.05
2023-05-02T11:19:46.312Z,102694.67
2023-05-02T11:22:26.624Z,102698.84
2023-05-02T11:24:56.713Z,102704.87
2023-05-02T11:27:36.905Z,102699.77
2023-05-02T11:30:09.998Z,102696.06
2023-05-02T11:32:49.574Z,102704.38
2023-05-02T11:35:21.311Z,102703.66
2023-05-02T11:38:03.613Z,102698.56
2023-05-02T11:40:34.027Z,102703.75
2023-05-02T11:43:14.917Z,102710.73
2023-05-02T11:45:45.447Z,102711.45
2023-05-02T11:48:20.614Z,102705.22
2023-05-02T11:50:52.492Z,102702.73
2023-05-02T11:53:29.320Z,102698.42
2023-05-02T11:56:01.435Z,102703.39
2023-05-02T11:58:35.681Z,102700.08
2023-05-02T12:01:17.283Z,102707.36
2023-05-02T12:03:49.403Z,102707.36
2023-05-02T12:06:20.343Z,102710.47
2023-05-02T12:08:50.473Z,102714.13
2023-05-02T12:11:21.129Z,102710.95
2023-05-02T12:13:51.582Z,102719.62
2023-05-02T12:16:21.662Z,102716.28
2023-05-02T12:18:51.949Z,102719.78
2023-05-02T12:21:21.924Z,102719.97
2023-05-02T12:23:51.881Z,102726.88
2023-05-02T12:26:31.881Z,102731.23
2023-05-02T12:29:02.799Z,102738.11
2023-05-02T12:31:32.869Z,102726.80
2023-05-02T12:34:03.397Z,102736.58
2023-05-02T12:36:34.062Z,102743.67
2023-05-02T12:39:04.536Z,102737.41
2023-05-02T12:41:37.009Z,102743.67
2023-05-02T12:44:08.253Z,102743.11
2023-05-02T12:46:38.386Z,102749.94
2023-05-02T12:49:12.454Z,102740.64
2023-05-02T12:51:43.730Z,102744.17
2023-05-02T12:54:16.354Z,102742.73
2023-05-02T12:56:46.326Z,102748.21
2023-05-02T12:59:28.993Z,102748.16
2023-05-02T13:01:59.254Z,102761.98
2023-05-02T13:04:37.472Z,102764.18
2023-05-02T13:07:07.555Z,102760.69
2023-05-02T13:09:37.791Z,102763.02
2023-05-02T13:12:10.144Z,102769.88
2023-05-02T13:14:40.026Z,102773.28
2023-05-02T13:17:09.795Z,102763.27
2023-05-02T13:19:42.461Z,102763.65
2023-05-02T13:22:11.695Z,102764.88
2023-05-02T13:24:41.191Z,102765.61
2023-05-02T13:27:11.053Z,102760.29
2023-05-02T13:29:40.871Z,102760.20
2023-05-02T13:32:10.659Z,102761.32
2023-05-02T13:34:40.467Z,102766.19
2023-05-02T13:37:10.822Z,102767.20
2023-05-02T13:39:40.711Z,102766.71
2023-05-02T13:42:11.514Z,102763.99
2023-05-02T13:44:42.022Z,102762.80
2023-05-02T13:47:11.893Z,102761.66
2023-05-02T13:49:41.700Z,102766.05
2023-05-02T13:52:11.665Z,102762.51
2023-05-02T13:54:41.275Z,102737.87
2023-05-02T13:57:11.946Z,102737.87
2023-05-02T13:59:41.753Z,102754.09
2023-05-02T14:02:11.727Z,102769.08
2023-05-02T14:04:41.725Z,102760.84
2023-05-02T14:07:11.607Z,102761.48
2023-05-02T14:09:41.415Z,102756.14
2023-05-02T14:12:12.109Z,102759.17
2023-05-02T14:14:41.918Z,102759.17
2023-05-02T14:17:12.022Z,102770.19
2023-05-02T14:19:41.844Z,102768.09
2023-05-02T14:22:11.693Z,102765.37
2023-05-02T14:24:41.554Z,102767.51
2023-05-02T14:27:13.403Z,102768.73
2023-05-02T14:29:43.221Z,102763.19
2023-05-02T14:32:13.281Z,102774.81
2023-05-02T14:34:43.378Z,102767.02
2023-05-02T14:37:13.182Z,102766.86
2023-05-02T14:39:44.697Z,102773.89
2023-05-02T14:42:14.706Z,102764.55
2023-05-02T14:44:44.510Z,102761.36
2023-05-02T14:47:14.380Z,102763.78
2023-05-02T14:49:44.371Z,102766.81
2023-05-02T14:52:13.961Z,102759.66
2023-05-02T14:54:43.797Z,102774.66
2023-05-02T14:57:13.698Z,102767.97
2023-05-02T14:59:43.510Z,102772.27
2023-05-02T15:02:13.442Z,102771.47
2023-05-02T15:04:43.536Z,102763.64
2023-05-02T15:07:13.485Z,102762.04
2023-05-02T15:09:43.268Z,102762.34
2023-05-02T15:12:13.087Z,102765.45
2023-05-02T15:14:42.889Z,102763.55
2023-05-02T15:17:13.070Z,102763.55
2023-05-02T15:19:42.887Z,102764.13
2023-05-02T15:22:12.695Z,102761.55
2023-05-02T15:24:42.598Z,102760.60
2023-05-02T15:27:12.400Z,102763.28
2023-05-02T15:29:42.312Z,102756.69
2023-05-02T15:32:11.992Z,102762.09
2023-05-02T15:34:41.890Z,102770.08
2023-05-02T15:37:11.931Z,102754.85
2023-05-02T15:39:41.840Z,102759.53
2023-05-02T15:42:11.815Z,102758.87
2023-05-02T15:44:41.823Z,102759.94
2023-05-02T15:47:11.661Z,102772.19
2023-05-02T15:49:41.768Z,102772.19
2023-05-02T15:52:11.819Z,102772.63
2023-05-02T15:54:42.965Z,102777.52
2023-05-02T15:57:12.873Z,102781.25
2023-05-02T15:59:42.698Z,102778.43
2023-05-02T16:02:12.674Z,102780.71
2023-05-02T16:04:43.042Z,102778.65
2023-05-02T16:07:13.164Z,102781.09
2023-05-02T16:09:42.952Z,102778.19
2023-05-02T16:12:13.530Z,102790.81
2023-05-02T16:14:43.345Z,102775.37
2023-05-02T16:17:13.143Z,102788.69
2023-05-02T16:19:42.985Z,102776.95
2023-05-02T16:22:12.454Z,102787.13
2023-05-02T16:24:42.811Z,102788.78
2023-05-02T16:27:12.879Z,102795.42
2023-05-02T16:29:42.781Z,102794.01
2023-05-02T16:32:12.654Z,102785.58
2023-05-02T16:34:42.177Z,102779.28
2023-05-02T16:37:12.151Z,102787.42
2023-05-02T16:39:41.949Z,102775.82
2023-05-02T16:42:12.028Z,102782.41
2023-05-02T16:44:41.845Z,102782.41
2023-05-02T16:47:11.642Z,102781.77
2023-05-02T16:49:41.435Z,102778.74
2023-05-02T16:52:11.721Z,102780.06
2023-05-02T16:54:41.254Z,102790.86
2023-05-02T16:57:11.050Z,102786.48
2023-05-02T16:59:40.888Z,102794.88
2023-05-02T17:02:11.475Z,102787.92
2023-05-02T17:04:42.508Z,102792.22
2023-05-02T17:07:12.769Z,102785.48
2023-05-02T17:09:44.362Z,102781.38
2023-05-02T17:12:15.434Z,102783.28
2023-05-02T17:14:46.020Z,102786.23
2023-05-02T17:17:17.536Z,102786.59
2023-05-02T17:19:48.299Z,102789.02
2023-05-02T17:22:19.013Z,102788.70
2023-05-02T17:24:50.491Z,102791.92
2023-05-02T17:27:20.536Z,102801.42
2023-05-02T17:29:50.415Z,102801.76
2023-05-02T17:32:20.303Z,102804.52
2023-05-02T17:34:50.194Z,102802.30
2023-05-02T17:37:20.012Z,102788.51
2023-05-02T17:39:49.834Z,102794.06
2023-05-02T17:42:19.556Z,102788.00
2023-05-02T17:44:49.373Z,102791.94
2023-05-02T17:47:20.038Z,102797.97
2023-05-02T17:49:51.207Z,102793.02
2023-05-02T17:52:21.521Z,102792.33
2023-05-02T17:54:51.790Z,102795.28
2023-05-02T17:57:21.884Z,102796.08
2023-05-02T17:59:53.412Z,102801.02
2023-05-02T18:02:23.988Z,102808.30
2023-05-02T18:04:54.099Z,102813.48
2023-05-02T18:07:28.491Z,102824.45
2023-05-02T18:10:00.459Z,102824.97
2023-05-02T18:12:31.359Z,102827.72
2023-05-02T18:15:03.127Z,102826.06
2023-05-02T18:17:33.668Z,102828.43
2023-05-02T18:20:06.325Z,102833.86
2023-05-02T18:22:36.682Z,102833.86
2023-05-02T18:25:08.459Z,102842.47
2023-05-02T18:27:38.249Z,102840.80
2023-05-02T18:30:11.085Z,102849.48
2023-05-02T18:32:40.882Z,102839.66
2023-05-02T18:35:11.253Z,102839.67
2023-05-02T18:37:41.039Z,102837.25
2023-05-02T18:40:12.516Z,102845.66
2023-05-02T18:42:42.326Z,102840.52
2023-05-02T18:45:12.033Z,102840.52
2023-05-02T18:47:41.985Z,102842.92
2023-05-02T18:50:12.851Z,102836.58
2023-05-02T18:52:43.081Z,102844.95
2023-05-02T18:55:12.875Z,102850.29
2023-05-02T18:57:44.480Z,102843.23
2023-05-02T19:00:16.342Z,102852.31
2023-05-02T19:02:46.305Z,102853.51
2023-05-02T19:05:15.949Z,102858.27
2023-05-02T19:07:45.820Z,102861.30
2023-05-02T19:10:15.598Z,102863.48
2023-05-02T19:12:46.816Z,102873.63
2023-05-02T19:15:16.795Z,102882.17
2023-05-02T19:17:46.648Z,102884.22
2023-05-02T19:20:16.249Z,102880.80
2023-05-02T19:22:49.813Z,102881.37
2023-05-02T19:25:19.737Z,102883.58
2023-05-02T19:27:49.816Z,102887.30
2023-05-02T19:30:21.495Z,102889.00
2023-05-02T19:32:51.637Z,102888.45
2023-05-02T19:35:21.325Z,102889.69
2023-05-02T19:37:51.131Z,102894.30
2023-05-02T19:40:20.632Z,102899.58
2023-05-02T19:42:50.446Z,102901.05
2023-05-02T19:45:20.255Z,102899.19
2023-05-02T19:47:50.117Z,102904.19
2023-05-02T19:50:20.019Z,102904.19
2023-05-02T19:52:51.595Z,102907.31
2023-05-02T19:55:21.252Z,102916.20
2023-05-02T19:57:51.043Z,102908.92
2023-05-02T20:00:20.881Z,102917.85
2023-05-02T20:02:51.671Z,102917.85
2023-05-02T20:05:24.552Z,102915.34
2023-05-02T20:07:54.703Z,102921.03
2023-05-02T20:10:24.318Z,102928.69
2023-05-02T20:12:54.098Z,102927.95
2023-05-02T20:15:24.134Z,102932.11
2023-05-02T20:17:55.619Z,102923.86
2023-05-02T20:20:29.083Z,102929.64
2023-05-02T20:22:59.133Z,102936.25
2023-05-02T20:25:28.704Z,102938.51
2023-05-02T20:27:58.265Z,102939.14
2023-05-02T20:30:28.140Z,102947.39
2023-05-02T20:33:10.646Z,102945.52
2023-05-02T20:35:29.774Z,102944.47
2023-05-02T20:37:59.571Z,102947.36
2023-05-02T20:40:30.936Z,102953.33
2023-05-02T20:43:01.792Z,102960.16
2023-05-02T20:45:31.676Z,102959.03
2023-05-02T20:48:01.228Z,102959.39
2023-05-02T20:50:31.161Z,102948.84
2023-05-02T20:53:01.034Z,102948.84
2023-05-02T20:55:31.163Z,102953.22
2023-05-02T20:58:00.977Z,102942.02
2023-05-02T21:00:30.849Z,102958.53
2023-05-02T21:03:00.775Z,102957.89
2023-05-02T21:05:30.731Z,102963.23
2023-05-02T21:08:00.582Z,102963.45
2023-05-02T21:10:31.524Z,102968.98
2023-05-02T21:13:01.295Z,102976.25
2023-05-02T21:15:32.615Z,102975.11
2023-05-02T21:18:03.484Z,102977.02
2023-05-02T21:20:33.767Z,102973.86
2023-05-02T21:23:03.881Z,102969.53
2023-05-02T21:25:34.262Z,102975.32
2023-05-02T21:28:07.031Z,102975.32
2023-05-02T21:30:37.110Z,102974.31
2023-05-02T21:33:06.937Z,102976.41
2023-05-02T21:35:36.764Z,102976.88
2023-05-02T21:38:08.116Z,102971.71
2023-05-02T21:40:41.118Z,102977.39
2023-05-02T21:43:10.918Z,102973.52
2023-05-02T21:45:48.817Z,102973.62
2023-05-02T21:48:19.243Z,102973.62
2023-05-02T21:50:49.064Z,102982.11
2023-05-02T21:53:18.866Z,102977.54
2023-05-02T21:55:48.687Z,102970.30
2023-05-02T21:58:18.509Z,102977.05
2023-05-02T22:00:48.353Z,102979.17
2023-05-02T22:03:18.535Z,102972.73
2023-05-02T22:05:50.160Z,102976.31
2023-05-02T22:08:20.394Z,102966.64
2023-05-02T22:10:50.271Z,102969.16
2023-05-02T22:13:20.139Z,102964.02
2023-05-02T22:15:50.803Z,102966.38
2023-05-02T22:18:20.607Z,102962.70
2023-05-02T22:20:50.666Z,102963.36
2023-05-02T22:23:20.411Z,102957.20
2023-05-02T22:25:50.222Z,102952.83
2023-05-02T22:28:20.280Z,102960.13
2023-05-02T22:30:50.157Z,102960.13
2023-05-02T22:33:19.986Z,102951.02
2023-05-02T22:35:49.780Z,102962.64
2023-05-02T22:38:20.959Z,102957.77
2023-05-02T22:40:50.792Z,102955.75
2023-05-02T22:43:20.570Z,102949.95
2023-05-02T22:45:51.345Z,102948.63
2023-05-02T22:48:21.270Z,102952.46
2023-05-02T22:50:50.873Z,102951.01
2023-05-02T22:53:25.042Z,102944.91
2023-05-02T22:55:54.801Z,102955.28
2023-05-02T22:58:24.691Z,102948.21
2023-05-02T23:00:54.541Z,102954.88
2023-05-02T23:03:24.267Z,102948.80
2023-05-02T23:05:54.167Z,102952.81
2023-05-02T23:08:23.730Z,102949.48
2023-05-02T23:10:53.555Z,102951.51
2023-05-02T23:13:23.691Z,102955.52
2023-05-02T23:15:56.746Z,102955.91
2023-05-02T23:18:26.676Z,102963.23
2023-05-02T23:20:56.568Z,102958.67
2023-05-02T23:23:26.713Z,102956.94
2023-05-02T23:25:56.980Z,102956.94
2023-05-02T23:28:27.406Z,102954.87
2023-05-02T23:30:57.690Z,102956.55
2023-05-02T23:33:27.672Z,102955.94
2023-05-02T23:35:57.821Z,102960.09
2023-05-02T23:38:27.782Z,102959.28
2023-05-02T23:40:58.244Z,102964.20
2023-05-02T23:43:27.915Z,102975.03
2023-05-02T23:45:58.065Z,102976.31
2023-05-02T23:48:27.855Z,102971.36
2023-05-02T23:50:57.640Z,102974.34
2023-05-02T23:53:27.440Z,102979.88
2023-05-02T23:55:58.829Z,102976.48
2023-05-02T23:58:28.339Z,102979.55
